createdAt,value
2023-02-24T00:02:01.148Z,98037.31
2023-02-24T00:04:35.150Z,98032.03
2023-02-24T00:07:03.004Z,98038.16
2023-02-24T00:09:33.501Z,98026.06
2023-02-24T00:12:10.414Z,98022.75
2023-02-24T00:14:41.823Z,98023.78
2023-02-24T00:17:10.816Z,98016.88
2023-02-24T00:19:38.586Z,98023.03
2023-02-24T00:22:08.683Z,98018.84
2023-02-24T00:24:36.969Z,98016.47
2023-02-24T00:27:12.389Z,98008.75
2023-02-24T00:29:42.023Z,98006.09
2023-02-24T00:32:13.361Z,98014.34
2023-02-24T00:34:41.384Z,98007.72
2023-02-24T00:37:09.326Z,98012.41
2023-02-24T00:39:42.001Z,98010.88
2023-02-24T00:42:09.536Z,98003.03
2023-02-24T00:44:41.032Z,97993.59
2023-02-24T00:47:10.578Z,97994.53
2023-02-24T00:49:42.476Z,97999.81
2023-02-24T00:52:17.250Z,97984.25
2023-02-24T00:54:47.532Z,97981.63
2023-02-24T00:57:18.464Z,97980.06
2023-02-24T00:59:48.269Z,97982.03
2023-02-24T01:02:16.500Z,97973.34
2023-02-24T01:04:45.099Z,97981.44
2023-02-24T01:07:13.056Z,97974.72
2023-02-24T01:09:42.113Z,97968.34
2023-02-24T01:12:38.644Z,97976.16
2023-02-24T01:15:10.126Z,97970.72
2023-02-24T01:17:38.176Z,97961.69
2023-02-24T01:20:18.381Z,97963.31
2023-02-24T01:22:53.424Z,97953.59
2023-02-24T01:25:20.793Z,97953.69
2023-02-24T01:27:48.591Z,97954.03
2023-02-24T01:30:16.357Z,97951.13
2023-02-24T01:32:44.543Z,97946.63
2023-02-24T01:35:12.276Z,97950.28
2023-02-24T01:37:39.825Z,97945.84
2023-02-24T01:40:20.835Z,97944.78
2023-02-24T01:42:49.468Z,97944.69
2023-02-24T01:45:22.761Z,97956.84
2023-02-24T01:47:54.084Z,97948.06
2023-02-24T01:50:26.323Z,97944.69
2023-02-24T01:53:02.597Z,97937.88
2023-02-24T01:55:47.221Z,97934.31
2023-02-24T01:58:24.129Z,97931.28
2023-02-24T02:00:52.293Z,97934.59
2023-02-24T02:03:36.510Z,97935.22
2023-02-24T02:06:12.050Z,97935.91
2023-02-24T02:08:43.131Z,97934.00
2023-02-24T02:11:21.415Z,97925.94
2023-02-24T02:13:52.901Z,97932.81
2023-02-24T02:16:38.218Z,97924.13
2023-02-24T02:19:44.883Z,97924.13
2023-02-24T02:23:07.629Z,97917.53
2023-02-24T02:26:24.768Z,97920.19
2023-02-24T02:29:22.146Z,97911.44
2023-02-24T02:32:40.261Z,97907.16
2023-02-24T02:35:23.808Z,97907.28
2023-02-24T02:38:05.061Z,97911.78
2023-02-24T02:40:45.818Z,97907.44
2023-02-24T02:43:31.078Z,97906.59
2023-02-24T02:46:03.979Z,97905.91
2023-02-24T02:48:41.410Z,97900.81
2023-02-24T02:51:18.958Z,97896.50
2023-02-24T02:54:11.321Z,97895.66
2023-02-24T02:56:47.217Z,97892.22
2023-02-24T02:59:22.705Z,97889.50
2023-02-24T03:02:01.250Z,97892.22
2023-02-24T03:04:30.391Z,97890.78
2023-02-24T03:07:03.462Z,97877.59
2023-02-24T03:09:39.994Z,97884.75
2023-02-24T03:12:14.762Z,97878.53
2023-02-24T03:14:51.233Z,97871.50
2023-02-24T03:17:24.999Z,97874.88
2023-02-24T03:20:15.130Z,97860.06
2023-02-24T03:22:51.756Z,97862.78
2023-02-24T03:25:35.004Z,97857.72
2023-02-24T03:28:29.203Z,97857.81
2023-02-24T03:31:11.122Z,97846.59
2023-02-24T03:33:46.820Z,97848.53
2023-02-24T03:36:15.181Z,97847.50
2023-02-24T03:38:43.985Z,97840.25
2023-02-24T03:41:11.484Z,97842.81
2023-02-24T03:43:46.870Z,97844.31
2023-02-24T03:46:17.171Z,97842.56
2023-02-24T03:48:53.112Z,97845.28
2023-02-24T03:51:23.483Z,97838.22
2023-02-24T03:54:06.542Z,97832.94
2023-02-24T03:56:40.590Z,97832.09
2023-02-24T03:59:46.940Z,97835.66
2023-02-24T04:02:30.498Z,97829.38
2023-02-24T04:05:24.111Z,97832.94
2023-02-24T04:08:04.318Z,97833.03
2023-02-24T04:11:10.400Z,97828.78
2023-02-24T04:13:51.995Z,97824.25
2023-02-24T04:16:36.681Z,97824.34
2023-02-24T04:19:14.122Z,97827.91
2023-02-24T04:21:48.472Z,97830.47
2023-02-24T04:24:21.487Z,97834.06
2023-02-24T04:26:51.385Z,97827.16
2023-02-24T04:29:23.898Z,97828.97
2023-02-24T04:32:03.944Z,97833.66
2023-02-24T04:34:32.680Z,97827.72
2023-02-24T04:37:02.381Z,97833.16
2023-02-24T04:39:32.057Z,97822.59
2023-02-24T04:42:01.756Z,97821.75
2023-02-24T04:44:29.221Z,97819.22
2023-02-24T04:46:56.665Z,97816.66
2023-02-24T04:49:23.889Z,97806.69
2023-02-24T04:51:51.727Z,97803.09
2023-02-24T04:54:21.191Z,97802.25
2023-02-24T04:56:54.103Z,97797.81
2023-02-24T04:59:23.250Z,97793.78
2023-02-24T05:01:55.040Z,97798.03
2023-02-24T05:04:22.420Z,97796.25
2023-02-24T05:06:49.444Z,97783.81
2023-02-24T05:09:18.266Z,97797.94
2023-02-24T05:11:50.708Z,97792.66
2023-02-24T05:14:24.812Z,97789.91
2023-02-24T05:16:51.836Z,97783.81
2023-02-24T05:19:38.901Z,97787.19
2023-02-24T05:22:07.261Z,97784.84
2023-02-24T05:24:34.992Z,97785.50
2023-02-24T05:27:03.951Z,97778.53
2023-02-24T05:29:34.780Z,97782.97
2023-02-24T05:32:04.114Z,97785.84
2023-02-24T05:34:33.610Z,97776.06
2023-02-24T05:37:10.206Z,97778.69
2023-02-24T05:39:37.986Z,97785.59
2023-02-24T05:42:06.866Z,97771.66
2023-02-24T05:44:35.985Z,97766.31
2023-02-24T05:47:05.517Z,97759.31
2023-02-24T05:49:35.548Z,97748.84
2023-02-24T05:52:09.211Z,97750.81
2023-02-24T05:54:45.357Z,97749.13
2023-02-24T05:57:19.502Z,97754.38
2023-02-24T05:59:53.349Z,97750.25
2023-02-24T06:02:27.875Z,97749.50
2023-02-24T06:04:55.733Z,97753.63
2023-02-24T06:07:34.576Z,97748.19
2023-02-24T06:10:04.906Z,97754.38
2023-02-24T06:12:34.754Z,97754.31
2023-02-24T06:15:07.642Z,97752.63
2023-02-24T06:17:35.353Z,97751.19
2023-02-24T06:20:12.977Z,97751.19
2023-02-24T06:22:42.489Z,97747.22
2023-02-24T06:25:14.271Z,97747.53
2023-02-24T06:27:43.220Z,97745.56
2023-02-24T06:30:11.522Z,97744.50
2023-02-24T06:32:38.702Z,97743.56
2023-02-24T06:35:06.235Z,97741.78
2023-02-24T06:37:33.360Z,97740.09
2023-02-24T06:40:01.651Z,97744.50
2023-02-24T06:42:28.861Z,97735.19
2023-02-24T06:44:56.277Z,97732.28
2023-02-24T06:47:23.235Z,97733.69
2023-02-24T06:49:50.470Z,97734.66
2023-02-24T06:52:19.216Z,97733.69
2023-02-24T06:54:52.564Z,97725.78
2023-02-24T06:57:20.842Z,97726.84
2023-02-24T06:59:49.155Z,97724.84
2023-02-24T07:02:17.676Z,97716.94
2023-02-24T07:04:45.116Z,97714.22
2023-02-24T07:07:14.585Z,97711.66
2023-02-24T07:09:42.719Z,97715.72
2023-02-24T07:12:12.742Z,97715.63
2023-02-24T07:14:40.680Z,97725.44
2023-02-24T07:17:08.475Z,97718.63
2023-02-24T07:19:36.785Z,97729.16
2023-02-24T07:22:04.528Z,97727.31
2023-02-24T07:24:39.319Z,97718.63
2023-02-24T07:27:27.704Z,97716.84
2023-02-24T07:29:55.031Z,97705.00
2023-02-24T07:32:23.157Z,97704.91
2023-02-24T07:34:50.434Z,97703.84
2023-02-24T07:37:19.674Z,97704.44
2023-02-24T07:39:47.475Z,97696.41
2023-02-24T07:42:14.564Z,97692.59
2023-02-24T07:44:44.598Z,97692.28
2023-02-24T07:47:11.813Z,97684.94
2023-02-24T07:49:41.031Z,97685.63
2023-02-24T07:52:09.090Z,97675.91
2023-02-24T07:54:39.261Z,97677.56
2023-02-24T07:57:13.884Z,97675.81
2023-02-24T07:59:47.227Z,97654.97
2023-02-24T08:02:15.615Z,97656.88
2023-02-24T08:04:50.064Z,97662.78
2023-02-24T08:07:30.829Z,97661.75
2023-02-24T08:10:13.851Z,97661.75
2023-02-24T08:12:42.942Z,97665.53
2023-02-24T08:15:18.258Z,97664.09
2023-02-24T08:17:47.497Z,97657.41
2023-02-24T08:20:16.305Z,97656.56
2023-02-24T08:22:52.293Z,97652.31
2023-02-24T08:25:36.189Z,97653.19
2023-02-24T08:28:11.553Z,97655.63
2023-02-24T08:30:45.817Z,97654.28
2023-02-24T08:33:20.726Z,97651.09
2023-02-24T08:36:01.631Z,97650.91
2023-02-24T08:38:44.919Z,97649.09
2023-02-24T08:41:21.380Z,97636.59
2023-02-24T08:43:49.896Z,97637.44
2023-02-24T08:46:26.504Z,97631.03
2023-02-24T08:49:00.785Z,97631.03
2023-02-24T08:51:35.180Z,97627.75
2023-02-24T08:54:16.849Z,97627.91
2023-02-24T08:56:56.009Z,97626.28
2023-02-24T08:59:38.573Z,97625.81
2023-02-24T09:02:29.420Z,97616.44
2023-02-24T09:05:13.201Z,97622.84
2023-02-24T09:07:42.367Z,97612.66
2023-02-24T09:10:19.064Z,97614.63
2023-02-24T09:12:49.255Z,97610.44
2023-02-24T09:15:16.582Z,97604.22
2023-02-24T09:17:45.248Z,97606.81
2023-02-24T09:20:25.703Z,97605.16
2023-02-24T09:23:07.395Z,97599.88
2023-02-24T09:25:49.546Z,97590.03
2023-02-24T09:28:24.703Z,97589.00
2023-02-24T09:31:04.949Z,97588.13
2023-02-24T09:33:39.070Z,97588.91
2023-02-24T09:36:10.239Z,97578.63
2023-02-24T09:39:01.217Z,97578.13
2023-02-24T09:41:56.737Z,97571.47
2023-02-24T09:44:44.385Z,97574.13
2023-02-24T09:47:31.101Z,97573.56
2023-02-24T09:50:40.284Z,97567.97
2023-02-24T09:53:14.177Z,97569.19
2023-02-24T09:56:05.562Z,97560.69
2023-02-24T09:59:01.153Z,97551.56
2023-02-24T10:01:50.379Z,97544.31
2023-02-24T10:05:07.230Z,97543.25
2023-02-24T10:07:43.942Z,97534.16
2023-02-24T10:10:36.796Z,97528.84
2023-02-24T10:13:32.783Z,97524.72
2023-02-24T10:16:08.520Z,97523.75
2023-02-24T10:19:01.439Z,97523.03
2023-02-24T10:22:01.603Z,97523.03
2023-02-24T10:25:01.433Z,97513.25
2023-02-24T10:27:42.421Z,97507.97
2023-02-24T10:30:21.094Z,97503.91
2023-02-24T10:33:02.329Z,97496.59
2023-02-24T10:35:36.790Z,97494.47
2023-02-24T10:38:05.454Z,97488.13
2023-02-24T10:40:46.936Z,97490.88
2023-02-24T10:43:20.801Z,97471.50
2023-02-24T10:45:48.346Z,97476.38
2023-02-24T10:48:41.506Z,97461.03
2023-02-24T10:51:21.489Z,97462.47
2023-02-24T10:54:09.935Z,97457.38
2023-02-24T10:56:55.546Z,97462.94
2023-02-24T10:59:25.444Z,97463.63
2023-02-24T11:02:29.886Z,97455.06
2023-02-24T11:05:25.018Z,97442.38
2023-02-24T11:08:36.635Z,97440.00
2023-02-24T11:11:30.738Z,97438.69
2023-02-24T11:14:20.391Z,97430.34
2023-02-24T11:17:12.683Z,97422.56
2023-02-24T11:20:22.326Z,97423.66
2023-02-24T11:22:55.779Z,97409.91
2023-02-24T11:25:46.018Z,97409.06
2023-02-24T11:28:48.987Z,97404.81
2023-02-24T11:32:00.321Z,97386.38
2023-02-24T11:34:58.333Z,97371.50
2023-02-24T11:38:09.731Z,97372.06
2023-02-24T11:40:46.440Z,97370.94
2023-02-24T11:43:24.251Z,97366.47
2023-02-24T11:46:00.727Z,97367.28
2023-02-24T11:48:58.198Z,97358.28
2023-02-24T11:51:31.967Z,97351.91
2023-02-24T11:54:16.124Z,97354.28
2023-02-24T11:56:50.255Z,97353.53
2023-02-24T11:59:47.044Z,97344.31
2023-02-24T12:02:47.185Z,97337.53
2023-02-24T12:05:36.877Z,97337.47
2023-02-24T12:08:24.298Z,97337.69
2023-02-24T12:11:01.679Z,97329.84
2023-02-24T12:13:42.345Z,97318.63
2023-02-24T12:16:33.783Z,97319.44
2023-02-24T12:19:51.814Z,97320.75
2023-02-24T12:22:19.176Z,97318.09
2023-02-24T12:24:52.061Z,97319.34
2023-02-24T12:27:46.657Z,97315.72
2023-02-24T12:30:38.252Z,97316.91
2023-02-24T12:33:21.310Z,97314.28
2023-02-24T12:36:03.100Z,97292.16
2023-02-24T12:38:55.752Z,97288.13
2023-02-24T12:41:43.284Z,97277.66
2023-02-24T12:44:41.742Z,97281.56
2023-02-24T12:47:21.465Z,97276.22
2023-02-24T12:49:57.296Z,97267.69
2023-02-24T12:53:04.802Z,97258.00
2023-02-24T12:55:47.949Z,97251.91
2023-02-24T12:58:45.788Z,97239.19
2023-02-24T13:01:23.470Z,97238.47
2023-02-24T13:04:35.485Z,97227.97
2023-02-24T13:07:47.812Z,97228.09
2023-02-24T13:10:35.081Z,97224.00
2023-02-24T13:13:17.684Z,97228.69
2023-02-24T13:15:58.774Z,97226.03
2023-02-24T13:18:39.625Z,97220.69
2023-02-24T13:21:09.250Z,97222.25
2023-02-24T13:23:42.945Z,97215.53
2023-02-24T13:26:10.659Z,97208.31
2023-02-24T13:28:38.648Z,97199.88
2023-02-24T13:31:12.735Z,97197.47
2023-02-24T13:33:44.957Z,97192.03
2023-02-24T13:36:22.773Z,97193.47
2023-02-24T13:39:06.854Z,97184.94
2023-02-24T13:41:40.857Z,97175.31
2023-02-24T13:44:29.405Z,97183.13
2023-02-24T13:47:38.745Z,97176.81
2023-02-24T13:50:25.456Z,97173.22
2023-02-24T13:53:33.944Z,97174.63
2023-02-24T13:56:49.431Z,97160.72
2023-02-24T13:59:57.742Z,97151.91
2023-02-24T14:02:31.032Z,97151.25
2023-02-24T14:05:08.448Z,97148.53
2023-02-24T14:07:39.538Z,97149.84
2023-02-24T14:10:20.449Z,97151.38
2023-02-24T14:12:50.483Z,97135.25
2023-02-24T14:15:25.728Z,97144.69
2023-02-24T14:18:03.978Z,97137.69
2023-02-24T14:20:38.051Z,97134.72
2023-02-24T14:23:29.853Z,97131.84
2023-02-24T14:26:06.504Z,97128.22
2023-02-24T14:28:38.540Z,97132.81
2023-02-24T14:31:16.929Z,97119.00
2023-02-24T14:33:45.908Z,97115.91
2023-02-24T14:36:26.321Z,97121.06
2023-02-24T14:39:04.633Z,97122.03
2023-02-24T14:41:31.733Z,97114.94
2023-02-24T14:44:25.815Z,97109.53
2023-02-24T14:46:59.248Z,97109.78
2023-02-24T14:49:33.839Z,97104.69
2023-02-24T14:52:22.336Z,97098.19
2023-02-24T14:55:10.858Z,97087.47
2023-02-24T14:57:49.819Z,97083.59
2023-02-24T15:00:22.105Z,97091.81
2023-02-24T15:03:02.994Z,97084.94
2023-02-24T15:05:30.765Z,97082.81
2023-02-24T15:07:58.707Z,97077.06
2023-02-24T15:10:30.497Z,97072.16
2023-02-24T15:13:27.631Z,97066.78
2023-02-24T15:15:57.048Z,97062.56
2023-02-24T15:18:29.115Z,97062.25
2023-02-24T15:21:04.005Z,97059.09
2023-02-24T15:23:35.428Z,97048.94
2023-02-24T15:26:08.688Z,97055.66
2023-02-24T15:28:37.615Z,97037.66
2023-02-24T15:31:18.118Z,97044.75
2023-02-24T15:33:58.011Z,97035.38
2023-02-24T15:36:34.954Z,97042.41
2023-02-24T15:39:07.955Z,97037.28
2023-02-24T15:41:46.750Z,97025.28
2023-02-24T15:44:33.161Z,97030.91
2023-02-24T15:47:22.796Z,97025.94
2023-02-24T15:49:49.932Z,97023.31
2023-02-24T15:52:24.385Z,97015.75
2023-02-24T15:54:52.893Z,97017.81
2023-02-24T15:58:17.989Z,97015.38
2023-02-24T16:00:45.688Z,97002.97
2023-02-24T16:03:13.079Z,97010.53
2023-02-24T16:05:40.744Z,97003.28
2023-02-24T16:08:16.640Z,96996.75
2023-02-24T16:10:43.849Z,96995.41
2023-02-24T16:13:30.434Z,96993.28
2023-02-24T16:15:57.597Z,96991.94
2023-02-24T16:18:26.016Z,96993.59
2023-02-24T16:20:56.981Z,96990.97
2023-02-24T16:23:26.752Z,96979.97
2023-02-24T16:25:59.862Z,96981.78
2023-02-24T16:28:27.953Z,96977.31
2023-02-24T16:30:55.019Z,96978.88
2023-02-24T16:33:23.715Z,96972.03
2023-02-24T16:35:54.964Z,96980.91
2023-02-24T16:38:26.564Z,96967.16
2023-02-24T16:40:54.789Z,96979.88
2023-02-24T16:43:22.082Z,96983.38
2023-02-24T16:45:50.255Z,96976.41
2023-02-24T16:48:26.469Z,96986.25
2023-02-24T16:50:54.019Z,96983.72
2023-02-24T16:53:24.460Z,96974.84
2023-02-24T16:55:52.021Z,96983.31
2023-02-24T16:58:19.819Z,96980.69
2023-02-24T17:00:50.370Z,96974.28
2023-02-24T17:03:31.215Z,96969.47
2023-02-24T17:05:58.255Z,96969.56
2023-02-24T17:08:25.718Z,96969.31
2023-02-24T17:10:54.508Z,96971.22
2023-02-24T17:13:22.175Z,96968.56
2023-02-24T17:15:55.345Z,96967.34
2023-02-24T17:18:25.118Z,96962.88
2023-02-24T17:20:53.681Z,96965.91
2023-02-24T17:23:21.809Z,96969.69
2023-02-24T17:25:54.377Z,96968.56
2023-02-24T17:28:22.286Z,96968.34
2023-02-24T17:30:49.448Z,96967.28
2023-02-24T17:33:16.902Z,96965.81
2023-02-24T17:35:47.094Z,96953.25
2023-02-24T17:38:16.960Z,96960.56
2023-02-24T17:40:45.709Z,96955.88
2023-02-24T17:43:13.303Z,96960.13
2023-02-24T17:45:46.688Z,96959.53
2023-02-24T17:48:16.082Z,96960.88
2023-02-24T17:50:45.949Z,96955.09
2023-02-24T17:53:14.584Z,96959.56
2023-02-24T17:55:55.815Z,96973.72
2023-02-24T17:58:27.158Z,96948.69
2023-02-24T18:00:54.240Z,96951.94
2023-02-24T18:03:21.485Z,96939.09
2023-02-24T18:05:48.718Z,96945.13
2023-02-24T18:08:16.038Z,96947.75
2023-02-24T18:10:43.055Z,96938.38
2023-02-24T18:13:10.388Z,96934.91
2023-02-24T18:15:39.324Z,96933.81
2023-02-24T18:18:06.659Z,96936.34
2023-02-24T18:20:33.928Z,96934.16
2023-02-24T18:23:01.187Z,96930.56
2023-02-24T18:25:28.324Z,96927.09
2023-02-24T18:27:55.822Z,96930.06
2023-02-24T18:30:22.815Z,96924.66
2023-02-24T18:32:51.911Z,96922.03
2023-02-24T18:35:22.403Z,96905.50
2023-02-24T18:37:56.458Z,96917.94
2023-02-24T18:40:25.609Z,96901.41
2023-02-24T18:42:53.248Z,96900.44
2023-02-24T18:45:21.946Z,96903.06
2023-02-24T18:47:53.284Z,96894.34
2023-02-24T18:50:25.009Z,96903.91
2023-02-24T18:52:52.382Z,96899.72
2023-02-24T18:55:19.954Z,96901.50
2023-02-24T18:57:47.891Z,96891.06
2023-02-24T19:00:15.652Z,96892.13
2023-02-24T19:02:43.068Z,96894.16
2023-02-24T19:05:10.839Z,96878.44
2023-02-24T19:07:38.191Z,96882.78
2023-02-24T19:10:06.336Z,96882.03
2023-02-24T19:12:33.654Z,96881.66
2023-02-24T19:15:00.754Z,96873.84
2023-02-24T19:17:28.068Z,96873.59
2023-02-24T19:19:55.126Z,96872.03
2023-02-24T19:22:23.146Z,96874.91
2023-02-24T19:24:50.663Z,96866.47
2023-02-24T19:27:18.603Z,96865.66
2023-02-24T19:29:45.905Z,96859.00
2023-02-24T19:32:14.186Z,96860.81
2023-02-24T19:34:42.927Z,96846.78
2023-02-24T19:37:11.626Z,96859.25
2023-02-24T19:39:39.158Z,96845.88
2023-02-24T19:42:07.001Z,96847.88
2023-02-24T19:44:34.962Z,96849.03
2023-02-24T19:47:02.710Z,96846.28
2023-02-24T19:49:29.983Z,96851.34
2023-02-24T19:51:59.360Z,96849.78
2023-02-24T19:54:28.218Z,96850.31
2023-02-24T19:56:58.031Z,96848.50
2023-02-24T19:59:25.549Z,96859.25
2023-02-24T20:01:54.432Z,96859.03
2023-02-24T20:04:23.939Z,96861.25
2023-02-24T20:06:52.102Z,96859.41
2023-02-24T20:09:21.996Z,96879.50
2023-02-24T20:11:51.769Z,96874.28
2023-02-24T20:14:20.314Z,96872.25
2023-02-24T20:16:47.893Z,96884.44
2023-02-24T20:19:15.866Z,96885.47
2023-02-24T20:21:43.893Z,96887.44
2023-02-24T20:24:15.001Z,96882.06
2023-02-24T20:26:49.728Z,96892.06
2023-02-24T20:29:21.008Z,96898.50
2023-02-24T20:31:48.877Z,96891.25
2023-02-24T20:34:17.035Z,96894.59
2023-02-24T20:36:44.815Z,96890.66
2023-02-24T20:39:14.543Z,96888.78
2023-02-24T20:41:42.058Z,96883.25
2023-02-24T20:44:10.657Z,96886.59
2023-02-24T20:46:37.994Z,96889.53
2023-02-24T20:49:09.407Z,96894.69
2023-02-24T20:51:38.433Z,96889.72
2023-02-24T20:54:07.665Z,96882.88
2023-02-24T20:56:38.019Z,96890.03
2023-02-24T20:59:18.902Z,96892.34
2023-02-24T21:01:48.491Z,96882.69
2023-02-24T21:04:19.841Z,96890.09
2023-02-24T21:06:51.435Z,96883.81
2023-02-24T21:09:18.580Z,96885.22
2023-02-24T21:11:46.023Z,96875.28
2023-02-24T21:14:16.274Z,96881.94
2023-02-24T21:16:45.726Z,96875.84
2023-02-24T21:19:12.822Z,96872.66
2023-02-24T21:21:40.253Z,96873.69
2023-02-24T21:24:07.957Z,96864.88
2023-02-24T21:26:35.322Z,96862.91
2023-02-24T21:29:02.288Z,96860.75
2023-02-24T21:31:29.630Z,96864.63
2023-02-24T21:33:57.308Z,96851.66
2023-02-24T21:36:26.695Z,96858.72
2023-02-24T21:38:55.254Z,96857.88
2023-02-24T21:41:24.061Z,96848.03
2023-02-24T21:43:55.557Z,96845.88
2023-02-24T21:46:28.225Z,96843.25
2023-02-24T21:48:59.769Z,96839.03
2023-02-24T21:51:29.267Z,96844.47
2023-02-24T21:53:57.842Z,96849.44
2023-02-24T21:56:28.790Z,96849.22
2023-02-24T21:59:05.914Z,96851.94
2023-02-24T22:01:41.227Z,96859.28
2023-02-24T22:04:14.311Z,96858.72
2023-02-24T22:06:43.740Z,96850.13
2023-02-24T22:09:14.429Z,96858.47
2023-02-24T22:11:42.264Z,96853.88
2023-02-24T22:14:12.377Z,96849.25
2023-02-24T22:16:41.081Z,96838.94
2023-02-24T22:19:09.540Z,96840.63
2023-02-24T22:21:39.349Z,96837.56
2023-02-24T22:24:07.229Z,96842.63
2023-02-24T22:26:34.509Z,96836.69
2023-02-24T22:29:02.390Z,96846.25
2023-02-24T22:31:33.997Z,96841.22
2023-02-24T22:34:02.326Z,96833.72
2023-02-24T22:36:33.975Z,96835.22
2023-02-24T22:39:03.176Z,96830.88
2023-02-24T22:41:34.074Z,96830.53
2023-02-24T22:44:04.034Z,96830.88
2023-02-24T22:46:36.812Z,96825.84
2023-02-24T22:49:05.385Z,96826.69
2023-02-24T22:51:32.839Z,96826.75
2023-02-24T22:54:00.036Z,96828.25
2023-02-24T22:56:29.207Z,96836.91
2023-02-24T22:58:57.794Z,96835.00
2023-02-24T23:01:32.373Z,96841.00
2023-02-24T23:04:05.705Z,96842.69
2023-02-24T23:06:34.801Z,96844.91
2023-02-24T23:09:03.781Z,96853.16
2023-02-24T23:11:43.394Z,96847.44
2023-02-24T23:14:14.453Z,96852.25
2023-02-24T23:16:44.673Z,96847.50
2023-02-24T23:19:17.027Z,96838.56
2023-02-24T23:21:49.846Z,96833.88
2023-02-24T23:24:20.249Z,96834.81
2023-02-24T23:26:57.978Z,96825.16
2023-02-24T23:29:26.703Z,96819.75
2023-02-24T23:31:54.387Z,96810.28
2023-02-24T23:34:21.668Z,96815.44
2023-02-24T23:36:48.998Z,96813.56
2023-02-24T23:39:24.011Z,96810.84
2023-02-24T23:41:56.955Z,96807.75
2023-02-24T23:44:24.493Z,96801.38
2023-02-24T23:46:51.741Z,96807.19
2023-02-24T23:49:18.829Z,96810.78
2023-02-24T23:51:48.838Z,96804.97
2023-02-24T23:54:18.422Z,96809.53
2023-02-24T23:56:46.478Z,96802.53
2023-02-24T23:59:14.024Z,96794.63
